Ana Sayfa
METAR-TAF:

METAR-TAF

Havaalanları :

Craiova, Romanya

Enlem: 44-14N, Boylam: 023-52E, yükseklik: 192 m

Güncel hava durumu gözlemi

Rapor saat 08:00 UTC de 28 dakika önce yapıldı.
Rüzgar doğudan 3 kt, kuzeydoğu ve güney/güneybatı arasında değişken
Sıcaklık 22°C
Nem 60%
Basınç 1017 hPa
Görüş mesafesi 10 km veya daha fazla
2800 ft yükseklikte parçalı çok bulutlu

METAR: LRCV 240800Z 09003KT 050V200 9999 BKN028 22/14 Q1017

Saat: 11:28 (08:28 UTC)

Tahmin

Rapor saat 05:00 UTC de 3 saat ve 28 dakika önce yapıldı.
Ayın 24'si saat 06 UTC'den ayın 24'si saat 15 UTC'ye kadar geçerli Tahmin
Rüzgar doğudan 6 kt
Görüş mesafesi 10 km veya daha fazla
4500 ft yükseklikte parçalı bulutlu
Geçici
ayın 24'si saat 13 UTC'den ayın 24'si saat 15 UTC'ye kadar
4000 ft yükseklikte parçalı bulutlu, Kümülonimbus.

TAF: LRCV 240500Z 2406/2415 08006KT 9999 SCT045 TEMPO 2413/2415 SCT040CB

4.000'den fazla havaalanı için hava durumu gözlemleri ve tahminleri (METAR ve TAF raporları).

Kullanılabilir istasyonlar harita üzerinde sarı ve kırmızı noktalarla gösterilir.

İstasyonun adını görmek için fareyi noktanın üzerinde gezdirin.

Sonrasında hava gözlem ve tahminlerini görmek için tıklayın.

Haritayı değiştirmek için: yaklaştırmak için siyah artı işaretli yeşil düğmeye ve uzaklaştırmak için de eksi işaretli düğmeye hızla tıklayın; bitişik haritalar için yeşil okları kullanın.


METAR-TAF: